createdAt,value
2022-10-14T00:02:07.741Z,98512.81
2022-10-14T00:04:38.465Z,98520.03
2022-10-14T00:07:07.489Z,98523.69
2022-10-14T00:09:36.671Z,98519.66
2022-10-14T00:12:08.324Z,98516.88
2022-10-14T00:14:37.476Z,98516.47
2022-10-14T00:17:06.629Z,98520.47
2022-10-14T00:19:36.992Z,98510.06
2022-10-14T00:22:06.056Z,98518.47
2022-10-14T00:24:35.181Z,98512.84
2022-10-14T00:27:04.260Z,98508.81
2022-10-14T00:29:33.405Z,98509.25
2022-10-14T00:32:02.647Z,98510.44
2022-10-14T00:34:31.919Z,98510.03
2022-10-14T00:37:03.788Z,98502.00
2022-10-14T00:39:33.683Z,98502.81
2022-10-14T00:42:02.756Z,98495.19
2022-10-14T00:45:07.031Z,98504.44
2022-10-14T00:47:38.244Z,98508.03
2022-10-14T00:50:12.883Z,98493.63
2022-10-14T00:52:44.136Z,98501.25
2022-10-14T00:55:19.348Z,98509.22
2022-10-14T00:57:48.611Z,98507.22
2022-10-14T01:00:20.743Z,98503.63
2022-10-14T01:02:50.557Z,98499.63
2022-10-14T01:05:21.249Z,98492.41
2022-10-14T01:08:09.880Z,98488.41
2022-10-14T01:10:46.889Z,98493.22
2022-10-14T01:13:26.867Z,98484.81
2022-10-14T01:16:15.727Z,98475.56
2022-10-14T01:19:17.374Z,98475.53
2022-10-14T01:21:50.765Z,98482.38
2022-10-14T01:25:04.085Z,98472.75
2022-10-14T01:27:56.211Z,98472.75
2022-10-14T01:30:31.207Z,98469.91
2022-10-14T01:33:12.829Z,98471.53
2022-10-14T01:35:55.881Z,98473.16
2022-10-14T01:38:31.862Z,98470.72
2022-10-14T01:41:09.704Z,98468.31
2022-10-14T01:43:41.204Z,98465.09
2022-10-14T01:46:13.827Z,98457.06
2022-10-14T01:48:49.216Z,98465.06
2022-10-14T01:51:24.785Z,98444.25
2022-10-14T01:54:02.833Z,98447.44
2022-10-14T01:56:37.046Z,98449.06
2022-10-14T01:59:12.962Z,98445.06
2022-10-14T02:01:43.556Z,98442.69
2022-10-14T02:04:17.409Z,98430.66
2022-10-14T02:06:53.304Z,98435.00
2022-10-14T02:09:31.735Z,98427.03
2022-10-14T02:12:18.835Z,98423.41
2022-10-14T02:14:58.624Z,98428.22
2022-10-14T02:17:34.163Z,98432.69
2022-10-14T02:20:09.724Z,98432.31
2022-10-14T02:22:43.365Z,98434.69
2022-10-14T02:25:20.504Z,98436.25
2022-10-14T02:27:52.529Z,98434.59
2022-10-14T02:30:22.833Z,98439.69
2022-10-14T02:33:02.230Z,98437.63
2022-10-14T02:35:32.796Z,98438.06
2022-10-14T02:38:08.833Z,98430.44
2022-10-14T02:40:45.629Z,98425.69
2022-10-14T02:43:15.011Z,98425.66
2022-10-14T02:45:45.783Z,98433.72
2022-10-14T02:48:16.274Z,98433.75
2022-10-14T02:50:45.442Z,98437.72
2022-10-14T02:53:18.359Z,98438.06
2022-10-14T02:55:48.370Z,98424.03
2022-10-14T02:58:17.405Z,98434.47
2022-10-14T03:00:46.453Z,98425.69
2022-10-14T03:03:17.260Z,98425.69
2022-10-14T03:05:46.404Z,98425.72
2022-10-14T03:08:16.557Z,98432.13
2022-10-14T03:10:48.932Z,98430.53
2022-10-14T03:13:18.678Z,98423.34
2022-10-14T03:15:50.750Z,98427.34
2022-10-14T03:18:22.911Z,98416.97
2022-10-14T03:20:57.289Z,98429.78
2022-10-14T03:23:33.576Z,98430.63
2022-10-14T03:26:02.693Z,98435.44
2022-10-14T03:28:37.515Z,98436.19
2022-10-14T03:31:19.041Z,98447.44
2022-10-14T03:34:18.695Z,98457.47
2022-10-14T03:36:54.113Z,98448.28
2022-10-14T03:39:24.009Z,98449.06
2022-10-14T03:41:53.775Z,98446.19
2022-10-14T03:44:33.022Z,98444.94
2022-10-14T03:47:14.608Z,98442.53
2022-10-14T03:49:45.370Z,98432.16
2022-10-14T03:52:22.303Z,98440.16
2022-10-14T03:55:01.981Z,98425.75
2022-10-14T03:57:32.176Z,98430.53
2022-10-14T04:00:02.882Z,98428.03
2022-10-14T04:02:43.140Z,98426.03
2022-10-14T04:05:32.594Z,98428.34
2022-10-14T04:08:09.496Z,98428.78
2022-10-14T04:10:40.338Z,98423.22
2022-10-14T04:13:12.156Z,98426.03
2022-10-14T04:15:42.639Z,98422.50
2022-10-14T04:18:29.414Z,98420.91
2022-10-14T04:21:04.337Z,98427.69
2022-10-14T04:23:34.583Z,98431.31
2022-10-14T04:26:11.898Z,98420.13
2022-10-14T04:28:41.863Z,98421.75
2022-10-14T04:31:17.566Z,98427.34
2022-10-14T04:33:55.751Z,98418.53
2022-10-14T04:36:33.323Z,98418.13
2022-10-14T04:39:04.670Z,98415.69
2022-10-14T04:41:37.726Z,98410.06
2022-10-14T04:44:07.167Z,98414.47
2022-10-14T04:46:50.369Z,98416.06
2022-10-14T04:50:14.136Z,98416.00
2022-10-14T04:53:04.719Z,98409.19
2022-10-14T04:55:33.999Z,98407.22
2022-10-14T04:58:07.589Z,98408.81
2022-10-14T05:00:44.866Z,98416.75
2022-10-14T05:03:33.914Z,98410.75
2022-10-14T05:06:03.629Z,98411.97
2022-10-14T05:08:36.570Z,98400.78
2022-10-14T05:11:10.672Z,98409.53
2022-10-14T05:13:48.865Z,98412.84
2022-10-14T05:26:26.789Z,98403.19
2022-10-14T05:28:58.203Z,98411.22
2022-10-14T05:36:41.424Z,98401.34
2022-10-14T05:39:11.625Z,98409.31
2022-10-14T05:41:58.038Z,98418.53
2022-10-14T05:44:29.739Z,98413.75
2022-10-14T05:47:01.376Z,98420.53
2022-10-14T05:49:32.596Z,98427.78
2022-10-14T05:52:05.637Z,98421.72
2022-10-14T05:54:35.818Z,98420.13
2022-10-14T05:57:10.070Z,98425.41
2022-10-14T05:59:39.341Z,98426.59
2022-10-14T06:02:09.063Z,98428.22
2022-10-14T06:04:41.051Z,98429.81
2022-10-14T06:07:16.532Z,98426.63
2022-10-14T06:09:45.682Z,98434.56
2022-10-14T06:12:16.388Z,98434.56
2022-10-14T06:14:46.120Z,98452.94
2022-10-14T06:17:17.544Z,98440.19
2022-10-14T06:19:47.695Z,98441.03
2022-10-14T06:22:16.877Z,98445.50
2022-10-14T06:24:45.944Z,98445.09
2022-10-14T06:27:16.433Z,98442.72
2022-10-14T06:29:47.109Z,98445.56
2022-10-14T06:32:16.677Z,98453.97
2022-10-14T06:34:45.957Z,98444.38
2022-10-14T06:37:15.926Z,98451.59
2022-10-14T06:39:47.681Z,98452.38
2022-10-14T06:42:18.686Z,98454.38
2022-10-14T06:44:48.294Z,98459.13
2022-10-14T06:47:18.041Z,98461.13
2022-10-14T06:49:47.208Z,98457.03
2022-10-14T06:52:16.535Z,98466.56
2022-10-14T06:54:48.308Z,98460.94
2022-10-14T06:57:19.114Z,98464.91
2022-10-14T06:59:48.200Z,98484.88
2022-10-14T07:02:17.470Z,98483.97
2022-10-14T07:04:47.443Z,98484.28
2022-10-14T07:07:16.705Z,98496.59
2022-10-14T07:09:47.052Z,98487.28
2022-10-14T07:12:34.367Z,98489.13
2022-10-14T07:15:06.800Z,98491.84
2022-10-14T07:18:01.534Z,98487.69
2022-10-14T07:21:18.742Z,98491.22
2022-10-14T07:23:47.985Z,98490.25
2022-10-14T07:26:17.740Z,98496.16
2022-10-14T07:28:48.482Z,98494.06
2022-10-14T07:31:18.351Z,98490.84
2022-10-14T07:33:47.510Z,98508.81
2022-10-14T07:36:22.374Z,98504.66
2022-10-14T07:38:52.326Z,98509.41
2022-10-14T07:41:24.786Z,98512.09
2022-10-14T07:44:02.481Z,98513.50
2022-10-14T07:51:11.657Z,98513.53
2022-10-14T07:53:40.874Z,98508.88
2022-10-14T08:43:00.619Z,98529.88
2022-10-14T08:45:35.181Z,98529.63
2022-10-14T08:48:12.859Z,98521.44
2022-10-14T08:50:50.875Z,98537.31
2022-10-14T08:53:24.094Z,98532.13
2022-10-14T08:56:00.227Z,98529.81
2022-10-14T08:58:35.576Z,98535.19
2022-10-14T09:01:16.173Z,98538.72
2022-10-14T09:03:46.694Z,98534.66
2022-10-14T09:06:23.697Z,98532.38
2022-10-14T09:08:57.207Z,98534.44
2022-10-14T09:11:29.575Z,98531.25
2022-10-14T09:14:03.931Z,98543.53
2022-10-14T09:17:44.279Z,98534.00
2022-10-14T09:20:20.706Z,98536.22
2022-10-14T09:23:03.514Z,98536.06
2022-10-14T09:25:36.337Z,98541.84
2022-10-14T09:28:05.685Z,98536.91
2022-10-14T09:30:40.845Z,98537.72
2022-10-14T09:33:20.017Z,98539.59
2022-10-14T09:35:50.230Z,98532.19
2022-10-14T09:38:20.401Z,98532.84
2022-10-14T09:40:57.352Z,98539.56
2022-10-14T09:43:29.543Z,98533.50
2022-10-14T09:46:03.277Z,98534.66
2022-10-14T09:48:38.819Z,98536.81
2022-10-14T09:51:10.579Z,98533.53
2022-10-14T09:53:45.293Z,98533.75
2022-10-14T09:56:15.371Z,98537.41
2022-10-14T09:58:51.117Z,98526.00
2022-10-14T10:01:24.253Z,98532.66
2022-10-14T10:03:55.353Z,98524.88
2022-10-14T10:06:53.189Z,98531.38
2022-10-14T10:09:23.165Z,98533.44
2022-10-14T10:11:53.167Z,98529.63
2022-10-14T10:14:25.928Z,98521.94
2022-10-14T10:17:18.899Z,98538.75
2022-10-14T10:19:51.604Z,98524.16
2022-10-14T10:22:46.576Z,98533.09
2022-10-14T10:25:26.218Z,98539.09
2022-10-14T10:27:59.515Z,98533.75
2022-10-14T10:31:30.238Z,98524.09
2022-10-14T10:34:14.576Z,98525.22
2022-10-14T10:36:50.868Z,98515.56
2022-10-14T10:39:36.200Z,98515.22
2022-10-14T10:42:16.667Z,98509.69
2022-10-14T10:45:07.675Z,98510.66
2022-10-14T10:47:45.887Z,98503.22
2022-10-14T10:50:37.256Z,98490.47
2022-10-14T10:53:40.981Z,98493.91
2022-10-14T10:56:25.938Z,98488.94
2022-10-14T10:59:21.225Z,98487.44
2022-10-14T11:02:03.990Z,98477.38
2022-10-14T11:04:43.065Z,98470.41
2022-10-14T11:07:41.126Z,98461.97
2022-10-14T11:10:38.960Z,98457.38
2022-10-14T11:13:18.589Z,98461.97
2022-10-14T11:16:02.404Z,98461.34
2022-10-14T11:18:44.746Z,98453.59
2022-10-14T11:21:34.762Z,98447.41
2022-10-14T11:27:08.851Z,98444.03
2022-10-14T11:29:54.836Z,98448.53
2022-10-14T11:32:38.657Z,98434.56
2022-10-14T11:35:26.538Z,98438.72
2022-10-14T11:38:31.164Z,98441.56
2022-10-14T11:41:09.748Z,98428.22
2022-10-14T11:43:49.809Z,98430.38
2022-10-14T11:46:22.527Z,98433.94
2022-10-14T11:48:57.759Z,98430.56
2022-10-14T11:51:36.311Z,98432.03
2022-10-14T11:54:13.001Z,98428.38
2022-10-14T11:56:55.019Z,98422.66
2022-10-14T11:59:46.443Z,98417.94
2022-10-14T12:02:44.319Z,98412.00
2022-10-14T12:05:22.564Z,98415.38
2022-10-14T12:08:47.238Z,98409.69
2022-10-14T12:11:29.791Z,98409.34
2022-10-14T12:18:31.244Z,98413.06
2022-10-14T12:21:14.523Z,98409.91
2022-10-14T12:24:15.091Z,98404.38
2022-10-14T12:26:57.901Z,98400.91
2022-10-14T12:29:35.867Z,98396.22
2022-10-14T12:32:21.884Z,98396.69
2022-10-14T12:34:57.193Z,98388.41
2022-10-14T12:38:23.158Z,98391.31
2022-10-14T12:40:53.145Z,98390.84
2022-10-14T12:43:30.715Z,98394.09
2022-10-14T12:46:47.274Z,98395.41
2022-10-14T12:49:32.610Z,98389.72
2022-10-14T12:52:07.376Z,98389.69
2022-10-14T12:54:47.177Z,98385.44
2022-10-14T12:57:30.477Z,98385.44
2022-10-14T13:00:08.170Z,98381.09
2022-10-14T13:02:44.582Z,98383.97
2022-10-14T13:05:33.301Z,98377.19
2022-10-14T13:08:27.218Z,98382.09
2022-10-14T13:11:13.475Z,98383.78
2022-10-14T13:13:52.826Z,98378.09
2022-10-14T13:17:29.178Z,98378.16
2022-10-14T13:19:58.480Z,98378.81
2022-10-14T13:22:40.841Z,98373.78
2022-10-14T13:25:21.570Z,98370.47
2022-10-14T13:28:15.225Z,98372.63
2022-10-14T13:31:01.146Z,98373.13
2022-10-14T13:33:39.689Z,98370.75
2022-10-14T13:36:17.543Z,98373.13
2022-10-14T13:38:57.117Z,98371.16
2022-10-14T13:41:31.444Z,98367.34
2022-10-14T13:44:08.133Z,98372.69
2022-10-14T13:46:42.222Z,98372.72
2022-10-14T13:49:19.447Z,98364.38
2022-10-14T13:51:51.280Z,98361.47
2022-10-14T13:54:23.271Z,98357.31
2022-10-14T14:00:38.807Z,98356.19
2022-10-14T14:02:48.085Z,98352.75
2022-10-14T14:05:24.453Z,98356.03
2022-10-14T14:11:14.494Z,98365.56
2022-10-14T14:14:00.608Z,98361.44
2022-10-14T14:16:36.550Z,98357.06
2022-10-14T14:19:10.137Z,98352.66
2022-10-14T14:21:39.751Z,98347.19
2022-10-14T14:24:19.775Z,98350.94
2022-10-14T14:26:58.206Z,98345.34
2022-10-14T14:29:32.123Z,98351.53
2022-10-14T14:32:07.052Z,98341.81
2022-10-14T14:34:39.943Z,98351.69
2022-10-14T14:37:40.191Z,98342.63
2022-10-14T14:40:17.856Z,98346.34
2022-10-14T14:42:50.164Z,98349.34
2022-10-14T14:45:25.524Z,98336.66
2022-10-14T14:47:58.076Z,98345.47
2022-10-14T14:50:33.971Z,98337.94
2022-10-14T14:53:08.371Z,98336.94
2022-10-14T14:55:47.948Z,98333.13
2022-10-14T14:58:27.542Z,98331.19
2022-10-14T15:00:58.861Z,98329.03
2022-10-14T15:03:32.184Z,98332.00
2022-10-14T15:06:05.245Z,98330.16
2022-10-14T15:08:38.082Z,98322.31
2022-10-14T15:11:07.384Z,98330.22
2022-10-14T15:13:52.825Z,98314.91
2022-10-14T15:16:42.336Z,98311.72
2022-10-14T15:19:34.206Z,98313.16
2022-10-14T15:22:29.568Z,98304.81
2022-10-14T15:25:09.479Z,98303.22
2022-10-14T15:28:00.818Z,98312.44
2022-10-14T15:30:34.997Z,98308.59
2022-10-14T15:33:17.604Z,98312.63
2022-10-14T15:35:54.745Z,98315.03
2022-10-14T15:38:24.313Z,98311.66
2022-10-14T15:40:55.065Z,98321.50
2022-10-14T15:43:25.873Z,98319.06
2022-10-14T15:46:17.431Z,98315.28
2022-10-14T15:48:52.234Z,98323.59
2022-10-14T15:51:24.260Z,98322.13
2022-10-14T15:53:53.267Z,98318.69
2022-10-14T15:56:22.297Z,98323.22
2022-10-14T15:58:51.524Z,98338.28
2022-10-14T16:01:23.322Z,98330.63
2022-10-14T16:03:54.303Z,98329.28
2022-10-14T16:06:24.576Z,98332.97
2022-10-14T16:08:53.667Z,98327.91
2022-10-14T16:11:26.795Z,98328.44
2022-10-14T16:13:56.208Z,98328.31
2022-10-14T16:16:32.389Z,98327.25
2022-10-14T16:19:03.655Z,98319.59
2022-10-14T16:21:33.192Z,98333.06
2022-10-14T16:24:06.831Z,98325.31
2022-10-14T16:26:37.319Z,98330.44
2022-10-14T16:29:08.116Z,98331.97
2022-10-14T16:31:38.298Z,98329.16
2022-10-14T16:34:10.844Z,98339.84
2022-10-14T16:36:40.755Z,98339.66
2022-10-14T16:39:13.040Z,98336.81
2022-10-14T16:41:42.097Z,98347.59
2022-10-14T16:44:24.789Z,98353.75
2022-10-14T16:47:12.588Z,98350.78
2022-10-14T16:49:46.204Z,98356.16
2022-10-14T16:52:16.506Z,98355.69
2022-10-14T16:54:46.148Z,98368.03
2022-10-14T16:57:15.495Z,98364.47
2022-10-14T16:59:44.553Z,98367.88
2022-10-14T17:02:16.972Z,98366.00
2022-10-14T17:04:48.170Z,98359.81
2022-10-14T17:07:17.544Z,98360.53
2022-10-14T17:09:46.560Z,98359.56
2022-10-14T17:12:15.797Z,98366.25
2022-10-14T17:14:44.853Z,98365.34
2022-10-14T17:17:14.014Z,98357.91
2022-10-14T17:19:43.143Z,98357.50
2022-10-14T17:22:13.579Z,98361.88
2022-10-14T17:24:42.705Z,98356.50
2022-10-14T17:27:11.808Z,98357.63
2022-10-14T17:29:40.987Z,98342.88
2022-10-14T17:32:10.217Z,98349.84
2022-10-14T17:34:39.249Z,98354.47
2022-10-14T17:39:44.471Z,98353.88
2022-10-14T17:42:13.538Z,98355.13
2022-10-14T17:44:45.139Z,98356.03
2022-10-14T17:47:14.278Z,98352.91
2022-10-14T17:49:43.375Z,98350.91
2022-10-14T17:52:12.759Z,98347.13
2022-10-14T17:54:41.808Z,98344.53
2022-10-14T17:57:12.316Z,98347.13
2022-10-14T17:59:41.432Z,98353.53
2022-10-14T18:02:17.698Z,98353.06
2022-10-14T18:04:48.266Z,98363.38
2022-10-14T18:07:19.099Z,98364.38
2022-10-14T18:09:49.225Z,98369.91
2022-10-14T18:12:20.240Z,98370.47
2022-10-14T18:14:49.887Z,98368.84
2022-10-14T18:17:19.229Z,98375.31
2022-10-14T18:19:52.196Z,98369.00
2022-10-14T18:22:21.832Z,98378.81
2022-10-14T18:24:51.357Z,98372.50
2022-10-14T18:27:22.343Z,98385.97
2022-10-14T18:29:51.904Z,98371.78
2022-10-14T18:32:21.421Z,98375.13
2022-10-14T18:34:51.037Z,98379.16
2022-10-14T18:37:20.054Z,98374.81
2022-10-14T18:39:49.407Z,98363.16
2022-10-14T18:42:20.944Z,98369.94
2022-10-14T18:44:52.066Z,98370.72
2022-10-14T18:47:21.360Z,98366.31
2022-10-14T18:49:51.243Z,98377.19
2022-10-14T18:52:21.244Z,98369.59
2022-10-14T18:54:50.575Z,98376.03
2022-10-14T18:57:19.692Z,98381.69
2022-10-14T18:59:52.135Z,98387.22
2022-10-14T19:02:21.557Z,98379.06
2022-10-14T19:04:51.089Z,98387.94
2022-10-14T19:07:20.288Z,98384.78
2022-10-14T19:09:51.854Z,98392.06
2022-10-14T19:12:40.730Z,98400.56
2022-10-14T19:15:12.569Z,98389.47
2022-10-14T19:17:43.180Z,98394.69
2022-10-14T19:20:12.548Z,98410.75
2022-10-14T19:22:44.938Z,98399.94
2022-10-14T19:25:13.986Z,98394.69
2022-10-14T19:27:43.380Z,98407.25
2022-10-14T19:30:14.239Z,98404.56
2022-10-14T19:32:43.480Z,98402.19
2022-10-14T19:35:12.602Z,98406.25
2022-10-14T19:37:41.868Z,98404.56
2022-10-14T19:40:12.101Z,98402.19
2022-10-14T19:42:43.209Z,98398.97
2022-10-14T19:45:14.533Z,98393.34
2022-10-14T19:47:43.855Z,98398.25
2022-10-14T19:50:13.332Z,98391.88
2022-10-14T19:52:42.392Z,98390.25
2022-10-14T19:55:14.584Z,98385.47
2022-10-14T19:57:43.897Z,98390.75
2022-10-14T20:00:16.207Z,98389.59
2022-10-14T20:02:46.350Z,98384.00
2022-10-14T20:05:17.195Z,98382.38
2022-10-14T20:07:46.898Z,98379.94
2022-10-14T20:10:16.683Z,98375.91
2022-10-14T20:12:46.045Z,98377.16
2022-10-14T20:15:18.117Z,98382.31
2022-10-14T20:17:47.720Z,98381.56
2022-10-14T20:20:16.984Z,98377.59
2022-10-14T20:22:46.388Z,98384.78
2022-10-14T20:25:15.688Z,98400.81
2022-10-14T20:27:44.680Z,98393.97
2022-10-14T20:30:16.261Z,98392.38
2022-10-14T20:32:45.380Z,98397.22
2022-10-14T20:35:15.256Z,98392.41
2022-10-14T20:37:44.524Z,98395.19
2022-10-14T20:40:14.114Z,98394.84
2022-10-14T20:42:43.265Z,98393.69
2022-10-14T20:45:12.546Z,98392.50
2022-10-14T20:47:43.024Z,98392.91
2022-10-14T20:50:12.180Z,98392.19
2022-10-14T20:52:41.238Z,98387.41
2022-10-14T20:55:10.675Z,98390.63
2022-10-14T20:57:39.805Z,98393.03
2022-10-14T21:00:10.774Z,98391.44
2022-10-14T21:05:12.299Z,98380.56
2022-10-14T21:07:41.437Z,98377.34
2022-10-14T21:10:11.052Z,98378.50
2022-10-14T21:12:40.464Z,98373.75
2022-10-14T21:15:12.460Z,98368.94
2022-10-14T21:17:49.285Z,98357.31
2022-10-14T21:20:18.625Z,98358.94
2022-10-14T21:22:47.716Z,98357.75
2022-10-14T21:25:17.168Z,98349.72
2022-10-14T21:27:46.254Z,98351.25
2022-10-14T21:30:15.686Z,98359.25
2022-10-14T21:32:46.123Z,98351.25
2022-10-14T21:35:15.341Z,98345.78
2022-10-14T21:37:44.370Z,98349.03
2022-10-14T21:40:13.964Z,98334.19
2022-10-14T21:42:45.443Z,98326.56
2022-10-14T21:45:14.616Z,98334.59
2022-10-14T21:47:45.327Z,98321.38
2022-10-14T21:50:14.447Z,98327.00
2022-10-14T21:52:43.553Z,98328.19
2022-10-14T21:55:12.660Z,98317.34
2022-10-14T21:57:41.908Z,98311.75
2022-10-14T22:00:13.131Z,98319.66
2022-10-14T22:02:46.012Z,98327.31
2022-10-14T22:05:15.228Z,98324.56
2022-10-14T22:07:44.338Z,98320.19
2022-10-14T22:10:27.426Z,98319.78
2022-10-14T22:12:57.992Z,98318.63
2022-10-14T22:15:27.527Z,98315.44
2022-10-14T22:17:58.107Z,98319.41
2022-10-14T22:20:27.394Z,98313.03
2022-10-14T22:22:57.825Z,98313.00
2022-10-14T22:25:26.955Z,98317.00
2022-10-14T22:27:55.924Z,98311.78
2022-10-14T22:30:25.162Z,98317.38
2022-10-14T22:32:54.554Z,98323.41
2022-10-14T22:35:25.717Z,98323.84
2022-10-14T22:37:54.843Z,98325.81
2022-10-14T22:40:24.037Z,98323.44
2022-10-14T22:42:56.442Z,98317.09
2022-10-14T22:45:27.032Z,98321.09
2022-10-14T22:47:56.136Z,98327.47
2022-10-14T22:50:26.722Z,98311.47
2022-10-14T22:52:56.259Z,98319.50
2022-10-14T22:55:25.421Z,98320.28
2022-10-14T22:57:54.492Z,98310.69
2022-10-14T23:00:23.599Z,98302.69
2022-10-14T23:02:52.867Z,98301.88
2022-10-14T23:05:22.022Z,98301.06
2022-10-14T23:07:52.631Z,98299.47
2022-10-14T23:10:21.724Z,98295.47
2022-10-14T23:12:50.730Z,98291.88
2022-10-14T23:15:19.784Z,98289.06
2022-10-14T23:17:49.044Z,98287.88
2022-10-14T23:20:18.220Z,98296.59
2022-10-14T23:22:47.384Z,98285.81
2022-10-14T23:25:18.075Z,98293.44
2022-10-14T23:27:47.204Z,98285.44
2022-10-14T23:30:16.818Z,98283.47
2022-10-14T23:32:46.052Z,98280.25
2022-10-14T23:35:15.512Z,98283.47
2022-10-14T23:37:44.544Z,98272.25
2022-10-14T23:40:14.424Z,98276.31
2022-10-14T23:42:44.920Z,98278.72
2022-10-14T23:45:14.250Z,98280.31
2022-10-14T23:47:43.274Z,98287.50
2022-10-14T23:50:12.297Z,98281.91
2022-10-14T23:52:41.436Z,98285.09
2022-10-14T23:55:10.922Z,98283.50
2022-10-14T23:57:40.373Z,98290.31
